Time;durP1;ratioP1;P1;durP2;ratioP2;P2;SDS_P1;SDS_P2;PMS_P1;PMS_P2;Temp;Humidity;BMP_temperature;BMP_pressure;BME280_temperature;BME280_humidity;BME280_pressure;Samples;Min_cycle;Max_cycle;Signal;HPM_P1;HPM_P2
2023/05/13 00:00:16;;;;;;;;;;;;;;;20.98;100.00;99170.25;5022998;28;20004;-41
2023/05/13 00:02:42;;;;;;;;;;;;;;;21.06;100.00;99160.06;5020538;28;19971;-41
2023/05/13 00:05:07;;;;;;;;;;;;;;;21.06;100.00;99162.69;5026259;28;19917;-41
2023/05/13 00:07:32;;;;;;;;;;;;;;;21.12;100.00;99157.00;5022489;28;19999;-41
2023/05/13 00:09:57;;;;;;;;;;;;;;;20.88;100.00;99165.66;5023167;28;19956;-41
2023/05/13 00:12:23;;;;;;;;;;;;;;;20.86;100.00;99157.09;5021821;28;19991;-41
2023/05/13 00:14:48;;;;;;;;;;;;;;;20.60;100.00;99171.22;5024155;28;20007;-41
2023/05/13 00:17:13;;;;;;;;;;;;;;;20.66;100.00;99157.69;5022354;28;20060;-41
2023/05/13 00:19:38;;;;;;;;;;;;;;;20.45;100.00;99163.44;5022134;28;20004;-41
2023/05/13 00:22:04;;;;;;;;;;;;;;;20.39;100.00;99158.66;5021992;28;19913;-41
2023/05/13 00:24:29;;;;;;;;;;;;;;;20.76;100.00;99145.63;5027562;28;20449;-41
2023/05/13 00:26:54;;;;;;;;;;;;;;;20.93;100.00;99139.16;5022132;28;19917;-41
2023/05/13 00:29:20;;;;;;;;;;;;;;;21.07;100.00;99128.53;5022110;28;20385;-41
2023/05/13 00:31:45;;;;;;;;;;;;;;;21.19;100.00;99125.94;5021860;28;19921;-41
2023/05/13 00:34:10;;;;;;;;;;;;;;;21.40;100.00;99118.28;5020771;28;19921;-41
2023/05/13 00:36:36;;;;;;;;;;;;;;;21.16;100.00;99126.16;5022007;28;19924;-41
2023/05/13 00:39:01;;;;;;;;;;;;;;;20.64;100.00;99152.56;5024416;28;19917;-41
2023/05/13 00:41:26;;;;;;;;;;;;;;;20.08;100.00;99173.03;5022178;28;19924;-41
2023/05/13 00:43:55;;;;;;;;;;;;;;;20.37;100.00;99160.56;5021674;28;19976;-41
2023/05/13 00:46:21;;;;;;;;;;;;;;;20.52;100.00;99152.56;5021801;28;19917;-41
2023/05/13 00:48:46;;;;;;;;;;;;;;;20.81;100.00;99132.19;5019836;28;20374;-41
2023/05/13 00:51:11;;;;;;;;;;;;;;;21.39;99.55;99116.59;5019864;28;19925;-41
2023/05/13 00:53:36;;;;;;;;;;;;;;;21.35;97.71;99108.16;5021187;28;20007;-41
2023/05/13 00:56:02;;;;;;;;;;;;;;;20.83;100.00;99131.16;5021537;28;20384;-40
2023/05/13 00:58:27;;;;;;;;;;;;;;;20.56;100.00;99143.56;5019308;28;20893;-41
2023/05/13 01:00:58;;;;;;;;;;;;;;;20.55;100.00;99157.56;5018898;28;19921;-41
2023/05/13 01:03:34;;;;;;;;;;;;;;;20.01;100.00;99170.00;5022664;28;19913;-41
2023/05/13 01:06:15;;;;;;;;;;;;;;;20.31;100.00;99160.16;5021748;28;20312;-41
2023/05/13 01:08:49;;;;;;;;;;;;;;;19.92;100.00;99162.78;5019438;28;19970;-41
2023/05/13 01:11:17;;;;;;;;;;;;;;;20.09;100.00;99166.00;5026197;28;19983;-41
2023/05/13 01:13:43;;;;;;;;;;;;;;;19.96;100.00;99156.41;5018431;28;19921;-41
2023/05/13 01:16:17;;;;;;;;;;;;;;;20.04;100.00;99163.72;5017838;28;19936;-41
2023/05/13 01:18:51;;;;;;;;;;;;;;;19.97;100.00;99173.75;5020336;28;19916;-41
2023/05/13 01:21:21;;;;;;;;;;;;;;;19.69;100.00;99181.78;5022165;28;19924;-41
2023/05/13 01:23:46;;;;;;;;;;;;;;;19.19;100.00;99197.19;5023145;28;21258;-41
2023/05/13 01:26:12;;;;;;;;;;;;;;;19.48;100.00;99192.69;5020587;28;19952;-41
2023/05/13 01:28:37;;;;;;;;;;;;;;;19.65;100.00;99174.09;5020970;28;19923;-41
2023/05/13 01:31:02;;;;;;;;;;;;;;;19.77;100.00;99163.81;5021073;28;19917;-41
2023/05/13 01:33:27;;;;;;;;;;;;;;;18.87;100.00;99186.19;5021821;28;20267;-41
2023/05/13 01:35:53;;;;;;;;;;;;;;;19.35;100.00;99179.59;5019347;28;20376;-41
2023/05/13 01:38:18;;;;;;;;;;;;;;;18.93;100.00;99196.22;5021342;28;20270;-41
2023/05/13 01:40:45;;;;;;;;;;;;;;;19.62;100.00;99176.09;5019180;28;20261;-41
2023/05/13 01:43:10;;;;;;;;;;;;;;;19.57;100.00;99181.63;5021756;28;20740;-41
2023/05/13 01:45:35;;;;;;;;;;;;;;;19.32;100.00;99187.63;5023292;28;19920;-41
2023/05/13 01:48:00;;;;;;;;;;;;;;;19.42;100.00;99177.41;5022087;28;20011;-41
2023/05/13 01:50:26;;;;;;;;;;;;;;;18.78;100.00;99200.66;5024696;28;20047;-41
2023/05/13 01:52:51;;;;;;;;;;;;;;;19.32;100.00;99186.81;5026620;28;19928;-41
2023/05/13 01:55:16;;;;;;;;;;;;;;;18.68;100.00;99208.19;5020415;28;20358;-41
2023/05/13 01:57:41;;;;;;;;;;;;;;;18.53;100.00;99203.91;5020163;28;19924;-42
2023/05/13 02:00:07;;;;;;;;;;;;;;;18.93;100.00;99198.84;5026827;28;20413;-41
2023/05/13 02:02:32;;;;;;;;;;;;;;;19.53;100.00;99163.66;5020353;28;20401;-41
2023/05/13 02:04:57;;;;;;;;;;;;;;;19.01;100.00;99178.31;5019765;28;19986;-41
2023/05/13 02:07:23;;;;;;;;;;;;;;;19.59;100.00;99158.88;5020126;28;19917;-41
2023/05/13 02:09:48;;;;;;;;;;;;;;;19.62;100.00;99148.19;5020350;28;20007;-41
2023/05/13 02:12:13;;;;;;;;;;;;;;;19.34;100.00;99158.78;5019878;28;20012;-41
2023/05/13 02:14:38;;;;;;;;;;;;;;;19.26;100.00;99172.34;5019908;28;19932;-41
2023/05/13 02:17:03;;;;;;;;;;;;;;;19.07;100.00;99162.28;5019914;28;19952;-41
2023/05/13 02:19:29;;;;;;;;;;;;;;;19.68;100.00;99146.09;5020266;28;19964;-41
2023/05/13 02:21:54;;;;;;;;;;;;;;;19.04;100.00;99178.13;5020116;28;19976;-41
2023/05/13 02:24:19;;;;;;;;;;;;;;;19.52;100.00;99162.78;5024561;28;20493;-41
2023/05/13 02:26:45;;;;;;;;;;;;;;;19.19;100.00;99161.47;5019873;28;20456;-41
2023/05/13 02:29:10;;;;;;;;;;;;;;;19.07;100.00;99161.41;5020319;28;20143;-41
2023/05/13 02:31:35;;;;;;;;;;;;;;;18.65;100.00;99187.50;5018534;28;19967;-41
2023/05/13 02:34:01;;;;;;;;;;;;;;;18.76;100.00;99182.44;5018791;28;19964;-41
2023/05/13 02:36:26;;;;;;;;;;;;;;;19.07;100.00;99177.94;5023048;28;21195;-41
2023/05/13 02:38:51;;;;;;;;;;;;;;;18.78;100.00;99171.97;5017257;28;19956;-41
2023/05/13 02:41:16;;;;;;;;;;;;;;;18.59;100.00;99193.13;5020416;28;19917;-41
2023/05/13 02:43:42;;;;;;;;;;;;;;;18.83;100.00;99190.75;5019729;28;19917;-41
2023/05/13 02:46:07;;;;;;;;;;;;;;;18.73;100.00;99174.00;5019229;28;19924;-41
2023/05/13 02:48:32;;;;;;;;;;;;;;;18.53;100.00;99175.22;5019795;28;19921;-41
2023/05/13 02:50:57;;;;;;;;;;;;;;;18.54;100.00;99169.94;5022668;28;19917;-41
2023/05/13 02:53:23;;;;;;;;;;;;;;;18.71;100.00;99175.84;5024441;28;19931;-41
2023/05/13 02:55:48;;;;;;;;;;;;;;;18.56;100.00;99173.25;5019570;28;20011;-41
2023/05/13 02:58:13;;;;;;;;;;;;;;;19.59;100.00;99145.81;5023234;28;19968;-41
2023/05/13 03:00:38;;;;;;;;;;;;;;;19.52;100.00;99141.91;5026882;28;20021;-41
2023/05/13 03:03:04;;;;;;;;;;;;;;;19.74;100.00;99133.50;5023059;28;19961;-41
2023/05/13 03:05:29;;;;;;;;;;;;;;;19.30;100.00;99142.50;5023287;28;20731;-41
2023/05/13 03:07:54;;;;;;;;;;;;;;;19.19;100.00;99140.59;5023567;28;19924;-41
2023/05/13 03:10:20;;;;;;;;;;;;;;;18.97;100.00;99161.19;5025522;28;20008;-41
2023/05/13 03:12:45;;;;;;;;;;;;;;;17.85;100.00;99200.16;5023084;28;19932;-41
2023/05/13 03:15:11;;;;;;;;;;;;;;;17.80;100.00;99204.75;5022236;28;20015;-41
2023/05/13 03:17:36;;;;;;;;;;;;;;;17.85;100.00;99201.91;5023410;28;19928;-41
2023/05/13 03:20:02;;;;;;;;;;;;;;;18.19;100.00;99195.53;5025047;28;20287;-41
2023/05/13 03:22:27;;;;;;;;;;;;;;;18.18;100.00;99191.28;5028075;28;19920;-41
2023/05/13 03:24:52;;;;;;;;;;;;;;;18.17;100.00;99190.41;5023653;28;20290;-41
2023/05/13 03:27:17;;;;;;;;;;;;;;;18.62;100.00;99185.09;5022917;28;20369;-41
2023/05/13 03:29:43;;;;;;;;;;;;;;;18.20;100.00;99192.03;5022929;28;20409;-41
2023/05/13 03:32:08;;;;;;;;;;;;;;;17.50;100.00;99218.63;5026492;28;20366;-41
2023/05/13 03:34:35;;;;;;;;;;;;;;;17.47;100.00;99218.81;5022053;28;19921;-41
2023/05/13 03:37:00;;;;;;;;;;;;;;;17.75;100.00;99222.44;5023119;28;19943;-41
2023/05/13 03:39:25;;;;;;;;;;;;;;;18.56;100.00;99188.06;5023725;28;19989;-41
2023/05/13 03:41:50;;;;;;;;;;;;;;;18.71;100.00;99176.69;5022686;28;19921;-41
2023/05/13 03:44:16;;;;;;;;;;;;;;;18.81;100.00;99176.97;5021651;28;19917;-41
2023/05/13 03:46:42;;;;;;;;;;;;;;;18.68;100.00;99166.47;5022559;28;19963;-41
2023/05/13 03:49:07;;;;;;;;;;;;;;;18.76;100.00;99163.34;5022258;28;19924;-41
2023/05/13 03:51:33;;;;;;;;;;;;;;;18.59;100.00;99162.66;5026824;28;19920;-41
2023/05/13 03:53:58;;;;;;;;;;;;;;;18.04;100.00;99183.41;5022086;28;19967;-41
2023/05/13 03:56:24;;;;;;;;;;;;;;;17.86;100.00;99199.22;5022826;28;19917;-41
2023/05/13 03:58:49;;;;;;;;;;;;;;;17.82;100.00;99200.34;5022000;28;20322;-41
2023/05/13 04:01:14;;;;;;;;;;;;;;;17.88;100.00;99196.50;5021169;28;19960;-41
2023/05/13 04:03:43;;;;;;;;;;;;;;;17.94;100.00;99190.94;5023462;28;19921;-41
2023/05/13 04:06:08;;;;;;;;;;;;;;;18.22;100.00;99189.31;5022111;28;19913;-41
2023/05/13 04:08:33;;;;;;;;;;;;;;;18.45;100.00;99195.72;5020873;28;20351;-41
2023/05/13 04:10:58;;;;;;;;;;;;;;;18.99;100.00;99180.19;5021479;28;19917;-41
2023/05/13 04:13:23;;;;;;;;;;;;;;;19.28;100.00;99172.25;5028218;28;19925;-41
2023/05/13 04:15:49;;;;;;;;;;;;;;;18.43;100.00;99197.56;5021798;28;20063;-40
2023/05/13 04:18:14;;;;;;;;;;;;;;;18.86;100.00;99172.31;5021990;28;19921;-41
2023/05/13 04:20:39;;;;;;;;;;;;;;;17.86;100.00;99199.22;5022674;28;19985;-41
2023/05/13 04:23:05;;;;;;;;;;;;;;;18.10;100.00;99202.13;5022547;28;19928;-41
2023/05/13 04:25:30;;;;;;;;;;;;;;;17.70;100.00;99214.06;5021718;28;19972;-41
2023/05/13 04:27:55;;;;;;;;;;;;;;;18.31;100.00;99213.03;5022105;28;19917;-41
2023/05/13 04:30:21;;;;;;;;;;;;;;;18.54;100.00;99192.53;5022042;28;19917;-40
2023/05/13 04:32:46;;;;;;;;;;;;;;;19.01;100.00;99186.16;5020972;28;19995;-41
2023/05/13 04:35:11;;;;;;;;;;;;;;;19.33;100.00;99167.56;5021437;28;19917;-41
2023/05/13 04:37:37;;;;;;;;;;;;;;;20.01;100.00;99164.75;5021918;28;20366;-40
2023/05/13 04:40:02;;;;;;;;;;;;;;;18.19;100.00;99201.59;5021137;28;20449;-40
2023/05/13 04:42:28;;;;;;;;;;;;;;;19.89;100.00;99173.44;5020913;28;19932;-41
2023/05/13 04:44:53;;;;;;;;;;;;;;;19.07;100.00;99183.16;5025560;28;19925;-41
2023/05/13 04:47:18;;;;;;;;;;;;;;;17.39;100.00;99231.41;5021696;28;20410;-41
2023/05/13 04:49:43;;;;;;;;;;;;;;;17.46;100.00;99263.16;5021555;28;20238;-40
2023/05/13 04:52:11;;;;;;;;;;;;;;;18.19;100.00;99245.06;5021297;28;20455;-40
2023/05/13 04:54:38;;;;;;;;;;;;;;;18.47;100.00;99231.19;5020326;28;19931;-41
2023/05/13 04:57:03;;;;;;;;;;;;;;;19.12;100.00;99212.41;5028160;28;20408;-40
2023/05/13 04:59:28;;;;;;;;;;;;;;;19.73;100.00;99205.00;5021392;28;19921;-40
2023/05/13 05:01:54;;;;;;;;;;;;;;;20.38;100.00;99182.31;5026614;28;19978;-41
2023/05/13 05:04:19;;;;;;;;;;;;;;;20.50;100.00;99176.22;5023203;28;19921;-40
2023/05/13 05:06:44;;;;;;;;;;;;;;;20.30;100.00;99193.31;5023386;28;19928;-40
2023/05/13 05:09:10;;;;;;;;;;;;;;;19.66;100.00;99198.47;5020826;28;20373;-41
2023/05/13 05:11:36;;;;;;;;;;;;;;;19.93;100.00;99213.28;5020898;28;20459;-40
2023/05/13 05:14:01;;;;;;;;;;;;;;;20.14;100.00;99206.59;5020398;28;19932;-40
2023/05/13 05:16:27;;;;;;;;;;;;;;;19.42;100.00;99232.25;5023005;28;20558;-41
2023/05/13 05:18:52;;;;;;;;;;;;;;;19.63;100.00;99225.63;5019884;28;20401;-41
2023/05/13 05:21:17;;;;;;;;;;;;;;;20.47;100.00;99199.97;5020455;28;19960;-40
2023/05/13 05:23:42;;;;;;;;;;;;;;;19.50;100.00;99205.63;5020363;28;20004;-40
2023/05/13 05:26:08;;;;;;;;;;;;;;;20.31;100.00;99194.16;5017651;28;19917;-40
2023/05/13 05:28:33;;;;;;;;;;;;;;;19.13;100.00;99227.13;5025737;28;19928;-41
2023/05/13 05:30:58;;;;;;;;;;;;;;;18.68;100.00;99265.59;5020821;28;19917;-40
2023/05/13 05:33:23;;;;;;;;;;;;;;;17.98;100.00;99300.13;5021212;28;20476;-39
2023/05/13 05:35:49;;;;;;;;;;;;;;;18.06;100.00;99304.88;5021783;28;20024;-39
2023/05/13 05:38:14;;;;;;;;;;;;;;;19.71;100.00;99253.09;5023149;28;20012;-39
2023/05/13 05:40:41;;;;;;;;;;;;;;;19.94;100.00;99231.47;5018653;28;19956;-40
2023/05/13 05:43:06;;;;;;;;;;;;;;;20.39;100.00;99215.34;5020237;28;19916;-39
2023/05/13 05:45:33;;;;;;;;;;;;;;;20.79;100.00;99199.53;5019478;28;20700;-39
2023/05/13 05:47:58;;;;;;;;;;;;;;;21.55;100.00;99190.50;5019368;28;20412;-40
2023/05/13 05:50:24;;;;;;;;;;;;;;;22.02;100.00;99167.75;5018748;28;20004;-40
2023/05/13 05:52:49;;;;;;;;;;;;;;;21.56;100.00;99170.41;5019973;28;20023;-40
2023/05/13 05:55:14;;;;;;;;;;;;;;;20.14;100.00;99205.75;5020132;28;20289;-40
2023/05/13 05:57:40;;;;;;;;;;;;;;;20.88;100.00;99186.63;5020840;28;19924;-39
2023/05/13 06:00:06;;;;;;;;;;;;;;;20.44;100.00;99203.66;5021152;28;20302;-40
2023/05/13 06:02:31;;;;;;;;;;;;;;;21.06;100.00;99212.44;5023207;28;19964;-40
2023/05/13 06:04:56;;;;;;;;;;;;;;;20.58;100.00;99150.38;5022227;28;19941;-40
2023/05/13 06:07:21;;;;;;;;;;;;;;;22.13;98.86;99133.66;5018704;28;19917;-40
2023/05/13 06:09:46;;;;;;;;;;;;;;;23.22;96.12;99126.81;5020523;28;19926;-40
2023/05/13 06:12:12;;;;;;;;;;;;;;;23.94;93.94;99122.56;5020942;28;19948;-40
2023/05/13 06:14:37;;;;;;;;;;;;;;;21.17;100.00;99181.06;5024478;28;19921;-40
2023/05/13 06:17:02;;;;;;;;;;;;;;;21.30;100.00;99186.22;5020377;28;19916;-40
2023/05/13 06:19:27;;;;;;;;;;;;;;;21.36;100.00;99184.94;5018748;28;20023;-40
2023/05/13 06:21:52;;;;;;;;;;;;;;;21.76;100.00;99174.13;5020131;28;19925;-40
2023/05/13 06:24:18;;;;;;;;;;;;;;;22.74;98.32;99158.69;5027803;28;19932;-40
2023/05/13 06:26:44;;;;;;;;;;;;;;;22.70;93.12;99123.97;5020077;28;19917;-40
2023/05/13 06:29:09;;;;;;;;;;;;;;;22.66;90.97;99119.09;5022742;28;19966;-40
2023/05/13 06:31:34;;;;;;;;;;;;;;;22.10;97.87;99173.25;5023294;28;19913;-40
2023/05/13 06:33:59;;;;;;;;;;;;;;;22.57;97.20;99161.81;5030392;28;20028;-40
2023/05/13 06:36:25;;;;;;;;;;;;;;;23.33;93.81;99139.91;5027214;28;19924;-40
2023/05/13 06:38:52;;;;;;;;;;;;;;;22.21;95.51;99172.44;5023807;28;20627;-40
2023/05/13 06:41:17;;;;;;;;;;;;;;;20.85;100.00;99231.34;5025460;28;19913;-40
2023/05/13 06:43:44;;;;;;;;;;;;;;;20.13;100.00;99261.59;5025790;28;19943;-40
2023/05/13 06:46:10;;;;;;;;;;;;;;;19.97;100.00;99303.63;5023754;28;19960;-40
2023/05/13 06:48:35;;;;;;;;;;;;;;;19.44;100.00;99325.25;5023929;28;19944;-40
2023/05/13 06:51:00;;;;;;;;;;;;;;;19.60;100.00;99343.41;5021886;28;19949;-40
2023/05/13 06:53:25;;;;;;;;;;;;;;;19.33;100.00;99355.59;5021965;28;19983;-39
2023/05/13 06:55:51;;;;;;;;;;;;;;;19.28;100.00;99352.44;5022786;28;20730;-40
2023/05/13 06:58:16;;;;;;;;;;;;;;;19.38;100.00;99337.84;5023774;28;19917;-39
2023/05/13 07:00:41;;;;;;;;;;;;;;;20.23;100.00;99334.13;5023346;28;19967;-39
2023/05/13 07:03:07;;;;;;;;;;;;;;;19.80;100.00;99349.16;5028942;28;19921;-39
2023/05/13 07:05:32;;;;;;;;;;;;;;;19.88;100.00;99340.81;5027892;28;20413;-41
2023/05/13 07:07:57;;;;;;;;;;;;;;;20.41;100.00;99313.75;5023459;28;19917;-40
2023/05/13 07:10:23;;;;;;;;;;;;;;;20.25;100.00;99310.47;5030737;28;19944;-40
2023/05/13 07:12:48;;;;;;;;;;;;;;;21.52;100.00;99256.28;5023476;28;19928;-40
2023/05/13 07:15:13;;;;;;;;;;;;;;;20.80;100.00;99272.72;5023147;28;19926;-40
2023/05/13 07:17:38;;;;;;;;;;;;;;;20.87;100.00;99279.19;5023357;28;19928;-40
2023/05/13 07:20:04;;;;;;;;;;;;;;;21.90;100.00;99253.44;5028572;28;20424;-40
2023/05/13 07:22:29;;;;;;;;;;;;;;;23.64;100.00;99210.94;5023060;28;20407;-40
2023/05/13 07:24:55;;;;;;;;;;;;;;;21.50;100.00;99259.00;5022824;28;19985;-40
2023/05/13 07:27:20;;;;;;;;;;;;;;;22.01;100.00;99244.78;5030849;28;19960;-40
2023/05/13 07:29:45;;;;;;;;;;;;;;;22.90;100.00;99248.41;5023212;28;19913;-40
2023/05/13 07:32:11;;;;;;;;;;;;;;;22.41;100.00;99236.50;5022926;28;20597;-40
2023/05/13 07:34:36;;;;;;;;;;;;;;;24.58;100.00;99174.91;5020529;28;19921;-40
2023/05/13 07:37:03;;;;;;;;;;;;;;;23.01;100.00;99199.47;5032426;28;20047;-40
2023/05/13 07:39:28;;;;;;;;;;;;;;;22.11;100.00;99221.28;5023051;28;20974;-40
2023/05/13 07:41:53;;;;;;;;;;;;;;;23.91;100.00;99196.50;5027680;28;19921;-40
2023/05/13 07:44:19;;;;;;;;;;;;;;;23.00;98.68;99175.00;5022077;28;20909;-40
2023/05/13 07:46:44;;;;;;;;;;;;;;;22.65;98.65;99180.41;5023530;28;19917;-40
2023/05/13 07:49:10;;;;;;;;;;;;;;;24.69;98.42;99166.09;5023118;28;19920;-40
2023/05/13 07:51:35;;;;;;;;;;;;;;;23.89;92.96;99156.31;5020690;28;19921;-40
2023/05/13 07:54:00;;;;;;;;;;;;;;;22.92;95.76;99174.75;5020083;28;19921;-40
2023/05/13 07:56:25;;;;;;;;;;;;;;;22.95;91.64;99156.94;5028141;28;20278;-40
2023/05/13 07:58:51;;;;;;;;;;;;;;;23.76;92.96;99169.66;5022166;28;19939;-40
2023/05/13 08:01:16;;;;;;;;;;;;;;;23.22;94.23;99176.72;5020024;28;20273;-40
2023/05/13 08:03:41;;;;;;;;;;;;;;;22.97;93.26;99170.81;5041367;28;20016;-40
2023/05/13 08:06:06;;;;;;;;;;;;;;;24.49;93.18;99153.84;5022077;28;19967;-40
2023/05/13 08:08:32;;;;;;;;;;;;;;;22.73;90.89;99157.00;5020507;28;19920;-40
2023/05/13 08:10:57;;;;;;;;;;;;;;;23.37;94.07;99161.47;5028159;28;20007;-40
2023/05/13 08:13:22;;;;;;;;;;;;;;;24.66;90.07;99139.19;5022965;28;19929;-40
2023/05/13 08:15:47;;;;;;;;;;;;;;;24.20;86.49;99129.06;5021897;28;19948;-40
2023/05/13 08:18:13;;;;;;;;;;;;;;;25.39;91.13;99147.59;5022140;28;19917;-40
2023/05/13 08:20:38;;;;;;;;;;;;;;;22.87;95.38;99201.38;5032651;28;19923;-40
2023/05/13 08:23:03;;;;;;;;;;;;;;;22.41;91.12;99168.25;5029143;28;19912;-40
2023/05/13 08:25:28;;;;;;;;;;;;;;;23.96;88.49;99141.69;5021701;28;20581;-40
2023/05/13 08:27:54;;;;;;;;;;;;;;;23.62;91.89;99168.16;5022554;28;19967;-40
2023/05/13 08:30:19;;;;;;;;;;;;;;;25.19;87.76;99130.94;5023106;28;19956;-40
2023/05/13 08:32:44;;;;;;;;;;;;;;;24.07;92.57;99169.72;5026081;28;19979;-40
2023/05/13 08:35:09;;;;;;;;;;;;;;;23.00;86.92;99147.91;5021259;28;19925;-40
2023/05/13 08:37:35;;;;;;;;;;;;;;;22.95;91.66;99177.97;5022218;28;20047;-40
2023/05/13 08:40:01;;;;;;;;;;;;;;;25.20;86.49;99132.59;5004285;28;20008;-40
2023/05/13 08:42:27;;;;;;;;;;;;;;;26.22;82.23;99101.13;5020948;28;19917;-40
2023/05/13 08:44:52;;;;;;;;;;;;;;;25.07;85.45;99139.94;5028637;28;19982;-40
2023/05/13 08:47:24;;;;;;;;;;;;;;;25.65;89.68;99158.38;5021105;28;19914;-41
2023/05/13 08:49:49;;;;;;;;;;;;;;;25.74;86.43;99133.78;5021557;28;19929;-40
2023/05/13 08:52:14;;;;;;;;;;;;;;;26.94;80.38;99106.56;5020914;28;19928;-40
2023/05/13 08:54:40;;;;;;;;;;;;;;;24.80;86.77;99158.06;5019227;28;19925;-39
2023/05/13 08:57:05;;;;;;;;;;;;;;;25.80;82.68;99114.75;5021939;28;19931;-40
2023/05/13 08:59:30;;;;;;;;;;;;;;;26.44;82.34;99117.56;5021416;28;19917;-40
2023/05/13 09:01:56;;;;;;;;;;;;;;;27.81;74.96;99075.78;5026813;28;20448;-40
2023/05/13 09:04:21;;;;;;;;;;;;;;;25.67;76.83;99115.06;5020973;28;20037;-40
2023/05/13 09:06:47;;;;;;;;;;;;;;;25.71;80.12;99118.25;5024588;28;19913;-40
2023/05/13 09:09:12;;;;;;;;;;;;;;;26.78;76.90;99087.91;5020766;28;19923;-40
2023/05/13 09:11:39;;;;;;;;;;;;;;;26.85;76.92;99096.88;5029459;28;20059;-40
2023/05/13 09:14:06;;;;;;;;;;;;;;;26.93;80.91;99112.81;5020115;28;20026;-40
2023/05/13 09:16:31;;;;;;;;;;;;;;;25.41;83.57;99140.38;5025219;28;19924;-40
2023/05/13 09:19:01;;;;;;;;;;;;;;;24.89;82.83;99137.97;5020905;28;19917;-40
2023/05/13 09:21:28;;;;;;;;;;;;;;;23.75;87.81;99182.00;5020998;28;20047;-40
2023/05/13 09:24:08;;;;;;;;;;;;;;;23.33;92.94;99195.09;5020290;28;19947;-40
2023/05/13 09:26:34;;;;;;;;;;;;;;;23.37;100.00;99235.91;5023989;28;19925;-40
2023/05/13 09:29:18;;;;;;;;;;;;;;;26.35;91.86;99139.56;5021590;28;20464;-40
2023/05/13 09:31:44;;;;;;;;;;;;;;;26.15;87.18;99134.38;5019528;28;19961;-40
2023/05/13 09:34:09;;;;;;;;;;;;;;;24.49;85.58;99141.50;5018541;28;19921;-40
2023/05/13 09:36:34;;;;;;;;;;;;;;;26.74;82.59;99107.69;5020943;28;19917;-40
2023/05/13 09:39:00;;;;;;;;;;;;;;;25.44;79.75;99104.00;5019413;28;19924;-40
2023/05/13 09:41:34;;;;;;;;;;;;;;;25.27;82.81;99120.53;5017374;28;19991;-42
2023/05/13 09:44:03;;;;;;;;;;;;;;;24.76;83.51;99109.25;5018442;28;19920;-40
2023/05/13 09:46:29;;;;;;;;;;;;;;;24.81;82.79;99111.47;5021591;28;19917;-40
2023/05/13 09:48:56;;;;;;;;;;;;;;;24.84;85.35;99133.13;5021612;28;19924;-40
2023/05/13 09:51:30;;;;;;;;;;;;;;;26.85;79.38;99087.13;5022277;28;19924;-40
2023/05/13 09:54:02;;;;;;;;;;;;;;;27.22;77.97;99069.47;5019528;28;19931;-40
2023/05/13 09:56:29;;;;;;;;;;;;;;;25.95;85.84;99122.22;5019835;28;19917;-40
2023/05/13 09:58:55;;;;;;;;;;;;;;;27.48;80.98;99083.53;5020416;28;20269;-40
2023/05/13 10:01:21;;;;;;;;;;;;;;;26.01;80.46;99103.19;5022109;28;19921;-40
2023/05/13 10:03:46;;;;;;;;;;;;;;;27.53;76.84;99072.50;5023540;28;19928;-40
2023/05/13 10:06:11;;;;;;;;;;;;;;;27.80;79.08;99095.28;5018905;28;19924;-40
2023/05/13 10:08:37;;;;;;;;;;;;;;;27.10;76.90;99087.34;5018308;28;19969;-40
2023/05/13 10:11:02;;;;;;;;;;;;;;;29.59;75.71;99062.19;5017248;28;19968;-40
2023/05/13 10:13:27;;;;;;;;;;;;;;;28.27;71.17;99063.09;5001408;28;20582;-40
2023/05/13 10:15:53;;;;;;;;;;;;;;;28.61;71.10;99051.59;5020918;28;19924;-40
2023/05/13 10:18:19;;;;;;;;;;;;;;;28.20;74.68;99080.63;5019952;28;19917;-40
2023/05/13 10:20:45;;;;;;;;;;;;;;;25.70;83.49;99124.47;5018958;28;19921;-40
2023/05/13 10:23:11;;;;;;;;;;;;;;;25.94;83.28;99105.56;5009692;28;19924;-40
2023/05/13 10:25:36;;;;;;;;;;;;;;;26.83;85.64;99115.53;5018328;28;20229;-40
2023/05/13 10:28:02;;;;;;;;;;;;;;;28.36;83.10;99093.06;5019950;28;19917;-40
2023/05/13 10:30:29;;;;;;;;;;;;;;;28.68;69.41;99009.38;5019425;28;19984;-40
2023/05/13 10:32:54;;;;;;;;;;;;;;;28.05;70.87;99042.47;5017608;28;19941;-40
2023/05/13 10:35:19;;;;;;;;;;;;;;;27.21;75.46;99067.78;5020914;28;19931;-40
2023/05/13 10:37:45;;;;;;;;;;;;;;;29.60;71.81;99033.81;5019867;28;19964;-40
2023/05/13 10:40:10;;;;;;;;;;;;;;;27.61;74.76;99054.00;5020139;28;19917;-40
2023/05/13 10:42:37;;;;;;;;;;;;;;;28.71;69.45;99015.16;5024435;28;19945;-40
2023/05/13 10:45:02;;;;;;;;;;;;;;;28.62;66.17;99010.84;5020395;28;20007;-40
2023/05/13 10:47:30;;;;;;;;;;;;;;;28.85;63.68;98999.59;5002169;28;20497;-40
2023/05/13 10:49:56;;;;;;;;;;;;;;;29.27;66.47;99017.16;5021073;28;19999;-40
2023/05/13 10:52:21;;;;;;;;;;;;;;;26.15;71.67;99059.63;5022834;28;20370;-40
2023/05/13 10:55:00;;;;;;;;;;;;;;;28.75;67.80;99011.19;5019186;28;19921;-40
2023/05/13 10:57:35;;;;;;;;;;;;;;;29.10;71.33;99041.06;5017826;28;20381;-40
2023/05/13 11:00:17;;;;;;;;;;;;;;;28.92;63.00;98995.28;5017337;28;20324;-40
2023/05/13 11:02:42;;;;;;;;;;;;;;;28.26;66.18;99013.78;5012014;28;19932;-40
2023/05/13 11:05:08;;;;;;;;;;;;;;;29.39;64.07;98994.56;5015022;28;19918;-41
2023/05/13 11:07:36;;;;;;;;;;;;;;;29.95;66.54;99010.50;5021509;28;19952;-40
2023/05/13 11:10:02;;;;;;;;;;;;;;;27.57;67.99;99036.78;5023943;28;20699;-40
2023/05/13 11:12:27;;;;;;;;;;;;;;;28.11;66.11;99018.03;5015961;28;19921;-40
2023/05/13 11:14:54;;;;;;;;;;;;;;;28.08;69.02;99034.25;5019756;28;20023;-40
2023/05/13 11:17:20;;;;;;;;;;;;;;;28.10;65.31;99022.50;5020650;28;19925;-40
2023/05/13 11:19:46;;;;;;;;;;;;;;;27.50;60.45;99010.13;5025644;28;19924;-40
2023/05/13 11:22:11;;;;;;;;;;;;;;;26.81;66.27;99034.75;5022203;28;19917;-40
2023/05/13 11:24:36;;;;;;;;;;;;;;;27.99;66.46;99027.25;5021322;28;19967;-40
2023/05/13 11:27:12;;;;;;;;;;;;;;;27.16;69.60;99049.72;5022201;28;19924;-40
2023/05/13 11:29:37;;;;;;;;;;;;;;;27.02;69.25;99045.81;5021954;28;20705;-40
2023/05/13 11:32:03;;;;;;;;;;;;;;;26.86;74.40;99067.66;5022147;28;19921;-40
2023/05/13 11:34:29;;;;;;;;;;;;;;;28.22;62.46;98999.19;5030425;28;20382;-40
2023/05/13 11:36:57;;;;;;;;;;;;;;;27.89;64.86;99014.13;5021711;28;20008;-40
2023/05/13 11:39:25;;;;;;;;;;;;;;;27.32;67.79;99027.88;5020537;28;19917;-40
2023/05/13 11:41:50;;;;;;;;;;;;;;;28.75;63.50;98994.47;5023047;28;19924;-40
2023/05/13 11:44:16;;;;;;;;;;;;;;;30.05;64.06;98997.00;5030621;28;19921;-40
2023/05/13 11:46:52;;;;;;;;;;;;;;;29.86;56.76;98967.22;5027110;28;19991;-40
2023/05/13 11:49:33;;;;;;;;;;;;;;;31.05;56.30;98954.41;5021176;28;19917;-40
2023/05/13 11:51:59;;;;;;;;;;;;;;;31.85;59.64;98968.81;5021777;28;19929;-40
2023/05/13 11:54:24;;;;;;;;;;;;;;;31.75;60.55;98981.56;5019466;28;20305;-40
2023/05/13 11:56:49;;;;;;;;;;;;;;;30.32;67.24;99009.00;5021865;28;19921;-40
2023/05/13 11:59:14;;;;;;;;;;;;;;;28.95;59.39;98965.81;5031508;28;19921;-41
2023/05/13 12:01:40;;;;;;;;;;;;;;;31.80;50.31;98923.28;5021276;28;19983;-40
2023/05/13 12:04:06;;;;;;;;;;;;;;;29.10;53.53;98950.91;5027281;28;19958;-42
2023/05/13 12:06:31;;;;;;;;;;;;;;;31.17;52.01;98929.00;5030014;28;19960;-41
2023/05/13 12:09:03;;;;;;;;;;;;;;;31.15;50.46;98925.69;5024408;28;19917;-40
2023/05/13 12:11:29;;;;;;;;;;;;;;;28.82;54.66;98947.75;5021643;28;19920;-41
2023/05/13 12:13:54;;;;;;;;;;;;;;;28.87;57.46;98960.50;5020730;28;20415;-40
2023/05/13 12:16:19;;;;;;;;;;;;;;;30.15;60.01;98963.91;5019525;28;19917;-40
2023/05/13 12:18:55;;;;;;;;;;;;;;;30.75;54.52;98943.69;5021428;28;19932;-40
2023/05/13 12:21:20;;;;;;;;;;;;;;;30.69;52.27;98941.75;5023598;28;19921;-40
2023/05/13 12:23:45;;;;;;;;;;;;;;;31.11;60.22;98963.47;5022239;28;19920;-40
2023/05/13 12:26:11;;;;;;;;;;;;;;;30.60;53.24;98926.88;5022133;28;19936;-40
2023/05/13 12:28:36;;;;;;;;;;;;;;;29.63;52.75;98934.44;5022257;28;19996;-40
2023/05/13 12:31:02;;;;;;;;;;;;;;;30.81;49.54;98913.75;5018201;28;20015;-41
2023/05/13 12:33:31;;;;;;;;;;;;;;;32.15;47.02;98899.47;5025011;28;20044;-40